Terminal Aerodrome Forecast
Issued by NWS

Home | Current Version | Previous Version | Text Only | Print | Product List | Glossary On
Versions: 1 2 3 4 5 6 7 8 9 10 11 12 13 14 15 16
000
FTUS44 KTSA 230500
TAFBVO
TAF
KBVO 230520Z 2306/2406 00000KT P6SM SCT250
     FM231600 16010G16KT P6SM SCT200
     FM232300 16006KT P6SM BKN150=

USA.gov is the U.S. government's official web portal to all federal, state and local government web resources and services.